JBU2404 TJSJ-KJFK
Flight info
| Callsign | JBU2404 |
|---|---|
| Flight time | N/A |
| Altitude | 35000 |
| Route | GLADA3 MACOR/M079F350 L455 SAVIK/N0458F350 DCT YAALE Y495 CAMRN CAMRN5 |
| Aircraft | A320/M-SDE3FGHIRWY/LB1 |
Departure
| Time | 2026-04-30 21:50 |
|---|---|
| Airport | Luis Munoz Marin International Airport (TJSJ) |
Arrival
| Time | N/A |
|---|---|
| Airport | John F. Kennedy International Airport (KJFK) |
| Time | Latitude | Longitude | Altitude | Speed | Heading |
|---|---|---|---|---|---|
| 2026-04-30 21:35 | 18.43554 | -66.00649 | 17 ft | 0 kts | 0° |
| 2026-04-30 21:42 | 18.43532 | -66.00649 | 17 ft | 4 kts | 0° |
| 2026-04-30 21:42 | 18.43509 | -66.00650 | 19 ft | 3 kts | 360° |
| 2026-04-30 21:42 | 18.43484 | -66.00645 | 18 ft | 4 kts | 323° |
| 2026-04-30 21:43 | 18.43468 | -66.00624 | 18 ft | 4 kts | 283° |
| 2026-04-30 21:43 | 18.43465 | -66.00597 | 17 ft | 2 kts | 270° |
| 2026-04-30 21:43 | 18.43465 | -66.00595 | 17 ft | 1 kts | 270° |
| 2026-04-30 21:45 | 18.43465 | -66.00613 | 17 ft | 6 kts | 269° |
| 2026-04-30 21:45 | 18.43466 | -66.00681 | 17 ft | 13 kts | 270° |
| 2026-04-30 21:46 | 18.43465 | -66.00799 | 17 ft | 18 kts | 270° |
| 2026-04-30 21:46 | 18.43466 | -66.00929 | 17 ft | 18 kts | 270° |
| 2026-04-30 21:46 | 18.43466 | -66.01062 | 17 ft | 17 kts | 270° |
| 2026-04-30 21:46 | 18.43468 | -66.01174 | 17 ft | 14 kts | 272° |
| 2026-04-30 21:47 | 18.43467 | -66.01271 | 17 ft | 14 kts | 268° |
| 2026-04-30 21:47 | 18.43467 | -66.01369 | 17 ft | 13 kts | 271° |
| 2026-04-30 21:47 | 18.43507 | -66.01436 | 17 ft | 10 kts | 346° |
| 2026-04-30 21:47 | 18.43576 | -66.01436 | 18 ft | 9 kts | 0° |
| 2026-04-30 21:48 | 18.43634 | -66.01436 | 17 ft | 8 kts | 359° |
| 2026-04-30 21:48 | 18.43692 | -66.01438 | 17 ft | 9 kts | 359° |
| 2026-04-30 21:48 | 18.43747 | -66.01452 | 17 ft | 8 kts | 320° |
| 2026-04-30 21:48 | 18.43763 | -66.01528 | 17 ft | 11 kts | 293° |
| 2026-04-30 21:49 | 18.43818 | -66.01562 | 17 ft | 9 kts | 11° |
| 2026-04-30 21:49 | 18.43861 | -66.01528 | 17 ft | 7 kts | 60° |
| 2026-04-30 21:49 | 18.43900 | -66.01431 | 17 ft | 37 kts | 67° |
| 2026-04-30 21:49 | 18.44094 | -66.00947 | 19 ft | 102 kts | 67° |
| 2026-04-30 21:50 | 18.44434 | -66.00107 | 19 ft | 146 kts | 67° |
| 2026-04-30 21:50 | 18.44881 | -65.99009 | 132 ft | 173 kts | 66° |
| 2026-04-30 21:50 | 18.45445 | -65.97884 | 722 ft | 174 kts | 58° |
| 2026-04-30 21:50 | 18.46141 | -65.96842 | 1454 ft | 175 kts | 42° |
| 2026-04-30 21:51 | 18.47213 | -65.96252 | 2012 ft | 181 kts | 11° |
| 2026-04-30 21:51 | 18.48544 | -65.96223 | 2197 ft | 203 kts | 359° |
| 2026-04-30 21:51 | 18.50040 | -65.96275 | 2406 ft | 227 kts | 359° |
| 2026-04-30 21:51 | 18.51700 | -65.96339 | 2688 ft | 251 kts | 359° |
| 2026-04-30 21:52 | 18.53508 | -65.96405 | 3218 ft | 266 kts | 359° |
| 2026-04-30 21:52 | 18.55344 | -65.96468 | 3975 ft | 270 kts | 359° |
| 2026-04-30 21:52 | 18.57232 | -65.96532 | 4798 ft | 272 kts | 358° |
| 2026-04-30 21:52 | 18.59136 | -65.96595 | 5576 ft | 275 kts | 358° |
| 2026-04-30 21:53 | 18.61064 | -65.96658 | 6346 ft | 279 kts | 358° |
| 2026-04-30 21:53 | 18.63017 | -65.96718 | 7050 ft | 283 kts | 358° |
| 2026-04-30 21:53 | 18.64995 | -65.96779 | 7752 ft | 286 kts | 357° |
| 2026-04-30 21:53 | 18.66998 | -65.96843 | 8456 ft | 290 kts | 356° |
| 2026-04-30 21:54 | 18.69025 | -65.96907 | 9145 ft | 293 kts | 356° |
| 2026-04-30 21:54 | 18.71074 | -65.96966 | 9839 ft | 296 kts | 356° |
| 2026-04-30 21:54 | 18.73169 | -65.97026 | 10243 ft | 310 kts | 356° |
| 2026-04-30 21:54 | 18.75399 | -65.97096 | 10369 ft | 331 kts | 356° |
| 2026-04-30 21:55 | 18.77773 | -65.97174 | 10508 ft | 351 kts | 356° |
| 2026-04-30 21:55 | 18.80243 | -65.97254 | 10914 ft | 359 kts | 356° |
| 2026-04-30 21:55 | 18.82754 | -65.97333 | 11462 ft | 363 kts | 356° |
| 2026-04-30 21:55 | 18.85289 | -65.97411 | 12032 ft | 366 kts | 356° |
| 2026-04-30 21:56 | 18.87841 | -65.97487 | 12591 ft | 369 kts | 356° |
| 2026-04-30 21:56 | 18.90415 | -65.97565 | 13175 ft | 371 kts | 356° |
| 2026-04-30 21:56 | 18.93010 | -65.97643 | 13718 ft | 375 kts | 356° |
| 2026-04-30 21:56 | 18.95628 | -65.97720 | 14215 ft | 378 kts | 356° |
| 2026-04-30 21:57 | 18.98268 | -65.97771 | 14697 ft | 381 kts | 356° |
| 2026-04-30 21:57 | 19.00929 | -65.97798 | 15184 ft | 384 kts | 356° |
| 2026-04-30 21:57 | 19.03609 | -65.97812 | 15659 ft | 387 kts | 356° |
| 2026-04-30 21:57 | 19.06314 | -65.97827 | 16158 ft | 390 kts | 356° |
| 2026-04-30 21:58 | 19.09033 | -65.97847 | 16633 ft | 393 kts | 356° |
| 2026-04-30 21:58 | 19.11778 | -65.97874 | 17140 ft | 396 kts | 356° |
| 2026-04-30 21:58 | 19.14540 | -65.97903 | 17644 ft | 398 kts | 355° |
| 2026-04-30 21:58 | 19.17324 | -65.97935 | 18144 ft | 402 kts | 355° |
| 2026-04-30 21:59 | 19.20128 | -65.97969 | 18591 ft | 405 kts | 355° |
| 2026-04-30 21:59 | 19.22956 | -65.98004 | 18998 ft | 409 kts | 355° |
| 2026-04-30 21:59 | 19.25814 | -65.98036 | 19398 ft | 413 kts | 355° |
| 2026-04-30 22:00 | 19.31610 | -65.98100 | 20239 ft | 420 kts | 355° |
| 2026-04-30 22:00 | 19.37514 | -65.98165 | 21031 ft | 428 kts | 354° |
| 2026-04-30 22:00 | 19.40508 | -65.98196 | 21403 ft | 432 kts | 354° |
| 2026-04-30 22:01 | 19.43523 | -65.98226 | 21781 ft | 435 kts | 354° |
| 2026-04-30 22:01 | 19.46564 | -65.98259 | 22148 ft | 439 kts | 354° |
| 2026-04-30 22:01 | 19.49630 | -65.98295 | 22505 ft | 442 kts | 354° |
| 2026-04-30 22:01 | 19.51672 | -65.98319 | 22730 ft | 444 kts | 354° |
| 2026-04-30 22:02 | 19.55827 | -65.98365 | 23208 ft | 448 kts | 354° |
| 2026-04-30 22:02 | 19.58957 | -65.98396 | 23536 ft | 451 kts | 354° |
| 2026-04-30 22:02 | 19.62102 | -65.98426 | 23858 ft | 453 kts | 354° |
| 2026-04-30 22:02 | 19.65260 | -65.98459 | 24144 ft | 455 kts | 354° |
| 2026-04-30 22:03 | 19.68433 | -65.98494 | 24461 ft | 456 kts | 354° |
| 2026-04-30 22:03 | 19.71608 | -65.98531 | 24795 ft | 457 kts | 354° |
| 2026-04-30 22:03 | 19.74793 | -65.98567 | 25114 ft | 458 kts | 354° |
| 2026-04-30 22:03 | 19.77987 | -65.98603 | 25425 ft | 459 kts | 354° |
| 2026-04-30 22:04 | 19.81183 | -65.98637 | 25724 ft | 460 kts | 354° |
| 2026-04-30 22:04 | 19.84390 | -65.98676 | 26028 ft | 462 kts | 354° |
| 2026-04-30 22:04 | 19.90833 | -65.98756 | 26624 ft | 464 kts | 354° |
| 2026-04-30 22:05 | 19.94068 | -65.98791 | 26913 ft | 466 kts | 354° |
| 2026-04-30 22:05 | 19.97310 | -65.98829 | 27216 ft | 467 kts | 354° |
| 2026-04-30 22:05 | 20.00564 | -65.98864 | 27501 ft | 468 kts | 354° |
| 2026-04-30 22:05 | 20.03826 | -65.98897 | 27855 ft | 468 kts | 354° |
| 2026-04-30 22:06 | 20.07074 | -65.98929 | 28294 ft | 466 kts | 354° |
| 2026-04-30 22:06 | 20.13502 | -65.99232 | 29147 ft | 456 kts | 344° |
| 2026-04-30 22:06 | 20.16543 | -66.00045 | 29567 ft | 447 kts | 335° |
| 2026-04-30 22:07 | 20.19362 | -66.01360 | 29996 ft | 439 kts | 325° |
| 2026-04-30 22:07 | 20.21136 | -66.02466 | 30245 ft | 436 kts | 323° |
| 2026-04-30 22:07 | 20.24578 | -66.04648 | 30741 ft | 434 kts | 323° |
| 2026-04-30 22:07 | 20.27175 | -66.06284 | 31124 ft | 433 kts | 323° |
| 2026-04-30 22:08 | 20.29761 | -66.07914 | 31517 ft | 431 kts | 322° |
| 2026-04-30 22:08 | 20.31500 | -66.09013 | 31791 ft | 429 kts | 322° |
| 2026-04-30 22:08 | 20.34062 | -66.10636 | 32203 ft | 427 kts | 322° |
| 2026-04-30 22:08 | 20.36612 | -66.12253 | 32620 ft | 425 kts | 321° |
| 2026-04-30 22:09 | 20.39145 | -66.13859 | 33039 ft | 423 kts | 321° |
| 2026-04-30 22:09 | 20.41671 | -66.15461 | 33468 ft | 421 kts | 321° |
| 2026-04-30 22:09 | 20.44176 | -66.17056 | 33871 ft | 419 kts | 320° |
| 2026-04-30 22:09 | 20.46672 | -66.18647 | 33973 ft | 418 kts | 320° |
| 2026-04-30 22:10 | 20.51653 | -66.21809 | 33992 ft | 416 kts | 320° |
| 2026-04-30 22:10 | 20.56629 | -66.24965 | 33989 ft | 416 kts | 320° |
| 2026-04-30 22:11 | 20.64087 | -66.29708 | 33992 ft | 416 kts | 320° |
| 2026-04-30 22:12 | 20.69061 | -66.32874 | 33989 ft | 416 kts | 320° |
| 2026-04-30 22:12 | 20.74035 | -66.36044 | 33992 ft | 416 kts | 320° |
| 2026-04-30 22:13 | 20.79010 | -66.39221 | 33987 ft | 417 kts | 320° |
| 2026-04-30 22:13 | 20.83993 | -66.42403 | 33994 ft | 417 kts | 321° |
| 2026-04-30 22:14 | 20.88981 | -66.45592 | 34003 ft | 418 kts | 321° |
| 2026-04-30 22:14 | 20.93976 | -66.48784 | 33987 ft | 419 kts | 321° |
| 2026-04-30 22:15 | 20.98945 | -66.51963 | 33987 ft | 419 kts | 321° |
| 2026-04-30 22:15 | 21.03955 | -66.55169 | 33988 ft | 420 kts | 321° |
| 2026-04-30 22:16 | 21.08972 | -66.58382 | 33988 ft | 420 kts | 321° |
| 2026-04-30 22:17 | 21.19028 | -66.64834 | 33993 ft | 422 kts | 322° |
| 2026-04-30 22:17 | 21.26587 | -66.69687 | 33995 ft | 422 kts | 322° |
| 2026-04-30 22:18 | 21.34149 | -66.74556 | 33991 ft | 423 kts | 322° |
| 2026-04-30 22:19 | 21.41716 | -66.79431 | 33997 ft | 423 kts | 322° |
| 2026-04-30 22:20 | 21.49283 | -66.84306 | 33995 ft | 423 kts | 322° |
| 2026-04-30 22:20 | 21.56845 | -66.89186 | 33997 ft | 423 kts | 322° |
| 2026-04-30 22:21 | 21.61883 | -66.92439 | 33998 ft | 423 kts | 322° |
| 2026-04-30 22:21 | 21.66924 | -66.95693 | 34001 ft | 422 kts | 322° |
| 2026-04-30 22:22 | 21.71954 | -66.98953 | 33998 ft | 422 kts | 322° |
| 2026-04-30 22:22 | 21.76983 | -67.02216 | 34001 ft | 422 kts | 322° |
| 2026-04-30 22:23 | 21.82012 | -67.05475 | 34003 ft | 422 kts | 322° |
| 2026-04-30 22:23 | 21.87007 | -67.08713 | 33997 ft | 422 kts | 322° |
| 2026-04-30 22:24 | 21.92030 | -67.11971 | 34005 ft | 422 kts | 322° |
| 2026-04-30 22:24 | 21.97053 | -67.15238 | 34006 ft | 421 kts | 321° |
| 2026-04-30 22:25 | 22.02067 | -67.18504 | 34006 ft | 421 kts | 322° |
| 2026-04-30 22:25 | 22.07083 | -67.21769 | 34005 ft | 421 kts | 322° |
| 2026-04-30 22:26 | 22.14607 | -67.26663 | 34008 ft | 421 kts | 322° |
| 2026-04-30 22:27 | 22.19613 | -67.29930 | 34010 ft | 421 kts | 322° |
| 2026-04-30 22:27 | 22.28007 | -67.33169 | 34004 ft | 440 kts | 342° |
| 2026-04-30 22:28 | 22.37026 | -67.35005 | 34005 ft | 439 kts | 342° |
| 2026-04-30 22:29 | 22.49038 | -67.37459 | 34006 ft | 439 kts | 342° |
| 2026-04-30 22:31 | 22.70002 | -67.41759 | 34012 ft | 439 kts | 342° |
| 2026-04-30 22:32 | 22.85011 | -67.44846 | 34006 ft | 439 kts | 342° |
| 2026-04-30 22:33 | 23.00032 | -67.47938 | 34015 ft | 440 kts | 342° |
| 2026-04-30 22:35 | 23.15061 | -67.51047 | 34013 ft | 440 kts | 342° |
| 2026-04-30 22:36 | 23.30090 | -67.54153 | 34012 ft | 440 kts | 343° |
| 2026-04-30 22:37 | 23.42078 | -67.56643 | 34014 ft | 440 kts | 343° |
| 2026-04-30 22:38 | 23.54100 | -67.59141 | 34014 ft | 440 kts | 343° |
| 2026-04-30 22:39 | 23.63117 | -67.61024 | 34014 ft | 440 kts | 343° |
| 2026-04-30 22:40 | 23.81163 | -67.64779 | 34015 ft | 440 kts | 343° |
| 2026-04-30 22:41 | 23.96207 | -67.67922 | 34017 ft | 440 kts | 343° |
| 2026-04-30 22:43 | 24.14258 | -67.71713 | 34019 ft | 440 kts | 343° |
| 2026-04-30 22:44 | 24.26294 | -67.74256 | 34022 ft | 440 kts | 343° |
| 2026-04-30 22:45 | 24.44362 | -67.78059 | 34022 ft | 441 kts | 343° |
| 2026-04-30 22:47 | 24.62456 | -67.81875 | 34021 ft | 442 kts | 343° |
| 2026-04-30 22:48 | 24.74537 | -67.84425 | 34012 ft | 442 kts | 343° |
| 2026-04-30 22:49 | 24.92669 | -67.88290 | 34017 ft | 443 kts | 343° |
| 2026-04-30 22:51 | 25.10837 | -67.92158 | 34020 ft | 443 kts | 343° |
| 2026-04-30 22:52 | 25.19928 | -67.94098 | 34013 ft | 444 kts | 343° |
| 2026-04-30 22:53 | 25.31076 | -67.96481 | 34017 ft | 444 kts | 343° |
| 2026-04-30 22:53 | 25.40139 | -67.98423 | 34014 ft | 444 kts | 344° |
| 2026-04-30 22:55 | 25.55319 | -68.01691 | 34017 ft | 445 kts | 344° |
| 2026-04-30 22:56 | 25.67514 | -68.04311 | 34015 ft | 445 kts | 344° |
| 2026-04-30 22:57 | 25.82711 | -68.07600 | 34010 ft | 446 kts | 344° |
| 2026-04-30 22:58 | 25.94900 | -68.10216 | 34013 ft | 446 kts | 345° |
| 2026-04-30 22:59 | 26.13221 | -68.14194 | 34010 ft | 448 kts | 345° |